Time;durP1;ratioP1;P1;durP2;ratioP2;P2;SDS_P1;SDS_P2;PMS_P1;PMS_P2;Temp;Humidity;BMP_temperature;BMP_pressure;BME280_temperature;BME280_humidity;BME280_pressure;Samples;Min_cycle;Max_cycle;Signal;HPM_P1;HPM_P2
2023/10/30 00:00:50;;;;;;;2.00;0.30;;;;;;;12.06;100.00;149142.53;5042421;28;20265;-52
2023/10/30 00:03:18;;;;;;;1.20;0.43;;;;;;;12.00;100.00;149128.84;5044013;28;20249;-51
2023/10/30 00:05:44;;;;;;;3.40;0.43;;;;;;;11.97;100.00;149121.31;5039615;28;20264;-51
2023/10/30 00:08:11;;;;;;;1.63;0.43;;;;;;;11.99;100.00;149125.03;5039178;28;20258;-51
2023/10/30 00:10:37;;;;;;;2.73;0.60;;;;;;;11.97;100.00;149121.31;5037979;28;20241;-51
2023/10/30 00:13:05;;;;;;;5.40;0.20;;;;;;;12.00;100.00;149127.56;5029703;28;20245;-51
2023/10/30 00:15:31;;;;;;;0.60;0.30;;;;;;;11.96;100.00;149120.06;5044656;28;20233;-51
2023/10/30 00:17:58;;;;;;;3.40;0.30;;;;;;;11.98;100.00;149122.53;5024551;28;20236;-51
2023/10/30 00:20:26;;;;;;;1.73;0.47;;;;;;;12.02;100.00;149132.56;5043211;28;20221;-51
2023/10/30 00:22:53;;;;;;;1.00;0.30;;;;;;;12.09;100.00;149150.03;5042816;28;20275;-51
2023/10/30 00:25:21;;;;;;;1.60;0.20;;;;;;;12.10;100.00;149152.50;5034547;28;20708;-52
2023/10/30 00:27:50;;;;;;;0.87;0.30;;;;;;;12.10;100.00;149152.50;5045599;28;20249;-51
2023/10/30 00:30:18;;;;;;;3.03;0.27;;;;;;;12.08;100.00;149147.53;5032288;28;20326;-51
2023/10/30 00:32:44;;;;;;;2.87;0.40;;;;;;;12.05;100.00;149140.03;5041170;28;20240;-54
2023/10/30 00:35:11;;;;;;;1.53;0.40;;;;;;;11.91;100.00;149107.59;5046012;28;20241;-51
2023/10/30 00:37:39;;;;;;;1.93;0.20;;;;;;;11.88;100.00;149100.09;5034979;28;20280;-51
2023/10/30 00:40:07;;;;;;;0.43;0.30;;;;;;;11.87;100.00;149097.59;5047483;28;20590;-51
2023/10/30 00:42:34;;;;;;;2.17;0.30;;;;;;;11.87;100.00;149097.59;5042925;28;20302;-51
2023/10/30 00:45:00;;;;;;;1.83;0.47;;;;;;;11.74;100.00;149065.19;5045416;28;20242;-52
2023/10/30 00:47:27;;;;;;;2.90;0.37;;;;;;;11.77;100.00;149072.69;5045669;28;20228;-53
2023/10/30 00:49:53;;;;;;;2.10;0.30;;;;;;;11.77;100.00;149073.94;5028037;28;20242;-51
2023/10/30 00:52:20;;;;;;;2.93;0.50;;;;;;;11.71;100.00;149057.72;5045395;28;20617;-51
2023/10/30 00:54:48;;;;;;;0.73;0.43;;;;;;;11.74;100.00;149065.19;5059170;28;20214;-51
2023/10/30 00:57:15;;;;;;;3.70;0.40;;;;;;;11.71;100.00;149057.72;5033292;28;20334;-51
2023/10/30 00:59:41;;;;;;;3.40;0.43;;;;;;;11.62;100.00;149037.81;5039400;28;20241;-51
2023/10/30 01:02:08;;;;;;;0.60;0.40;;;;;;;11.65;100.00;149044.03;5037674;28;20229;-51
2023/10/30 01:04:34;;;;;;;2.07;0.40;;;;;;;11.65;100.00;149044.03;5059008;28;20283;-52
2023/10/30 01:07:01;;;;;;;0.83;0.30;;;;;;;11.63;100.00;149039.03;5045704;28;20238;-53
2023/10/30 01:09:28;;;;;;;0.63;0.30;;;;;;;11.63;100.00;149039.03;5046715;28;20233;-51
2023/10/30 01:11:57;;;;;;;2.67;0.40;;;;;;;11.64;100.00;149041.53;5035263;28;20645;-52
2023/10/30 01:14:24;;;;;;;4.07;0.40;;;;;;;11.61;100.00;149034.06;5044690;28;20229;-52
2023/10/30 01:16:50;;;;;;;4.83;0.70;;;;;;;11.61;100.00;149034.06;5042454;28;20709;-52
2023/10/30 01:19:17;;;;;;;0.73;0.30;;;;;;;11.58;100.00;149026.59;5042570;28;20226;-54
2023/10/30 01:21:44;;;;;;;2.57;0.40;;;;;;;11.80;100.00;149081.44;5046839;28;20299;-59
2023/10/30 01:24:11;;;;;;;3.80;0.50;;;;;;;11.93;100.00;149111.34;5038032;28;20271;-59
2023/10/30 01:26:38;;;;;;;2.93;0.40;;;;;;;11.84;100.00;149088.91;5042659;28;20295;-59
2023/10/30 01:29:07;;;;;;;2.73;0.40;;;;;;;12.12;100.00;149157.50;5052219;28;20228;-59
2023/10/30 01:31:34;;;;;;;5.00;0.30;;;;;;;11.97;100.00;149121.31;5034583;28;20238;-59
2023/10/30 01:34:00;;;;;;;1.17;0.40;;;;;;;11.91;100.00;149107.59;5032583;28;20686;-57
2023/10/30 01:36:27;;;;;;;1.97;0.53;;;;;;;11.83;100.00;149087.63;5039449;28;20235;-51
2023/10/30 01:38:53;;;;;;;4.40;0.47;;;;;;;11.72;100.00;149060.22;5032690;28;20698;-51
2023/10/30 01:41:20;;;;;;;2.57;0.30;;;;;;;11.58;100.00;149026.59;5061639;28;20761;-53
2023/10/30 01:43:47;;;;;;;3.70;0.87;;;;;;;11.44;100.00;148994.19;5040593;28;20317;-51
2023/10/30 01:46:14;;;;;;;4.93;0.40;;;;;;;11.46;100.00;148999.16;5029764;28;20237;-51
2023/10/30 01:48:42;;;;;;;2.83;0.30;;;;;;;11.46;100.00;148997.94;5034754;28;20238;-52
2023/10/30 01:51:12;;;;;;;4.00;0.40;;;;;;;11.29;100.00;148958.06;5038244;28;20764;-51
2023/10/30 01:53:39;;;;;;;2.67;0.60;;;;;;;11.28;100.00;148955.56;5035030;28;20238;-51
2023/10/30 01:56:07;;;;;;;5.03;1.47;;;;;;;11.27;100.00;148953.06;5046354;28;20234;-51
2023/10/30 01:58:35;;;;;;;2.73;0.40;;;;;;;11.26;100.00;148950.59;5041204;28;20229;-53
2023/10/30 02:01:02;;;;;;;2.33;0.40;;;;;;;11.24;100.00;148945.59;5043960;28;20234;-51
2023/10/30 02:03:30;;;;;;;1.80;0.30;;;;;;;11.21;100.00;148938.13;5036788;28;20241;-51
2023/10/30 02:05:56;;;;;;;1.23;0.30;;;;;;;11.19;100.00;148933.13;5032850;28;20624;-51
2023/10/30 02:08:23;;;;;;;1.93;0.30;;;;;;;11.18;100.00;148930.66;5044286;28;20233;-52
2023/10/30 02:10:50;;;;;;;4.10;0.30;;;;;;;11.13;100.00;148919.41;5041574;28;20426;-51
2023/10/30 02:13:17;;;;;;;0.83;0.20;;;;;;;11.15;100.00;148923.16;5045029;28;20237;-51
2023/10/30 02:15:44;;;;;;;3.93;0.50;;;;;;;11.10;100.00;148910.72;5043211;28;20225;-53
2023/10/30 02:18:11;;;;;;;5.20;0.50;;;;;;;11.11;100.00;148914.47;5045575;28;20612;-53
2023/10/30 02:20:40;;;;;;;4.03;0.40;;;;;;;11.14;100.00;148920.69;5021854;28;20864;-53
2023/10/30 02:23:06;;;;;;;0.80;0.43;;;;;;;11.06;100.00;148903.22;5043903;28;20238;-51
2023/10/30 02:25:34;;;;;;;8.13;0.40;;;;;;;11.03;100.00;148894.53;5052387;28;20226;-51
2023/10/30 02:28:02;;;;;;;2.73;0.50;;;;;;;10.99;100.00;148884.56;5020481;28;20327;-53
2023/10/30 02:30:29;;;;;;;4.83;0.40;;;;;;;10.97;100.00;148880.81;5047716;28;20291;-52
2023/10/30 02:32:55;;;;;;;3.33;0.47;;;;;;;11.00;100.00;148888.28;5057859;28;20249;-53
2023/10/30 02:35:22;;;;;;;5.00;0.50;;;;;;;10.91;100.00;148865.84;5037108;28;20320;-51
2023/10/30 02:37:51;;;;;;;3.80;0.40;;;;;;;10.90;100.00;148863.38;5042373;28;20400;-51
2023/10/30 02:40:17;;;;;;;4.50;0.40;;;;;;;10.87;100.00;148855.88;5037313;28;20234;-52
2023/10/30 02:42:46;;;;;;;5.03;0.50;;;;;;;10.84;100.00;148848.41;5032543;28;20235;-52
2023/10/30 02:45:12;;;;;;;1.60;0.33;;;;;;;10.81;100.00;148842.22;5043050;28;20718;-51
2023/10/30 02:47:39;;;;;;;3.07;0.50;;;;;;;10.78;100.00;148834.75;5030906;28;21048;-51
2023/10/30 02:50:07;;;;;;;1.20;0.40;;;;;;;10.73;100.00;148823.50;5044097;28;20229;-52
2023/10/30 02:52:35;;;;;;;1.93;0.60;;;;;;;10.67;100.00;148807.34;5042805;28;20621;-53
2023/10/30 02:55:02;;;;;;;2.47;0.50;;;;;;;10.63;100.00;148799.84;5043368;28;20233;-51
2023/10/30 02:57:29;;;;;;;3.10;0.30;;;;;;;10.61;100.00;148793.59;5051191;28;20707;-51
2023/10/30 02:59:59;;;;;;;2.70;0.37;;;;;;;10.59;100.00;148789.91;5057837;28;20230;-51
2023/10/30 03:02:25;;;;;;;2.20;0.30;;;;;;;10.60;100.00;148792.38;5043828;28;20243;-51
2023/10/30 03:04:52;;;;;;;3.63;0.40;;;;;;;10.60;100.00;148791.16;5039606;28;20700;-51
2023/10/30 03:07:19;;;;;;;2.70;0.33;;;;;;;10.57;100.00;148784.91;5045813;28;20252;-51
2023/10/30 03:09:46;;;;;;;1.67;0.40;;;;;;;10.59;100.00;148788.69;5041009;28;20283;-51
2023/10/30 03:12:12;;;;;;;3.47;0.40;;;;;;;10.58;100.00;148787.41;5043055;28;20262;-51
2023/10/30 03:14:39;;;;;;;5.50;0.30;;;;;;;10.58;100.00;148786.19;5040027;28;20225;-52
2023/10/30 03:17:07;;;;;;;4.10;0.40;;;;;;;10.60;100.00;148791.16;5036588;28;20235;-52
2023/10/30 03:19:33;;;;;;;0.60;0.30;;;;;;;10.57;100.00;148784.91;5043523;28;20228;-51
2023/10/30 03:22:00;;;;;;;2.87;0.23;;;;;;;10.62;100.00;148797.38;5032263;28;20240;-51
2023/10/30 03:24:27;;;;;;;3.07;0.60;;;;;;;10.66;100.00;148804.84;5042611;28;20236;-53
2023/10/30 03:26:53;;;;;;;1.73;0.40;;;;;;;10.55;100.00;148778.72;5042213;28;20263;-52
2023/10/30 03:29:20;;;;;;;3.20;0.27;;;;;;;10.56;100.00;148782.41;5036449;28;20245;-52
2023/10/30 03:31:47;;;;;;;4.87;0.87;;;;;;;10.55;100.00;148778.72;5037606;28;20825;-50
2023/10/30 03:34:18;;;;;;;1.13;0.30;;;;;;;10.57;100.00;148784.91;5027665;28;20216;-51
2023/10/30 03:36:45;;;;;;;6.80;0.40;;;;;;;10.57;100.00;148784.91;5033229;28;20234;-51
2023/10/30 03:39:11;;;;;;;2.70;0.43;;;;;;;10.59;100.00;148788.69;5038259;28;20240;-54
2023/10/30 03:41:38;;;;;;;1.03;0.23;;;;;;;10.58;100.00;148787.41;5037274;28;20884;-51
2023/10/30 03:44:05;;;;;;;1.43;0.30;;;;;;;10.60;100.00;148791.16;5040008;28;20239;-52
2023/10/30 03:46:34;;;;;;;3.23;0.20;;;;;;;10.63;100.00;148799.84;5037560;28;20236;-51
2023/10/30 03:49:00;;;;;;;2.33;0.33;;;;;;;10.59;100.00;148789.91;5029246;28;21082;-51
2023/10/30 03:51:29;;;;;;;2.77;0.47;;;;;;;10.65;100.00;148802.34;5063092;28;20221;-51
2023/10/30 03:53:55;;;;;;;5.80;2.00;;;;;;;10.64;100.00;148801.09;5045341;28;20233;-51
2023/10/30 03:56:22;;;;;;;1.77;0.20;;;;;;;10.69;100.00;148812.31;5041832;28;20235;-51
2023/10/30 03:58:49;;;;;;;2.23;0.23;;;;;;;10.68;100.00;148811.03;5027775;28;20221;-51
2023/10/30 04:01:15;;;;;;;1.20;0.10;;;;;;;10.74;100.00;148826.00;5041237;28;20703;-54
2023/10/30 04:03:42;;;;;;;0.17;0.13;;;;;;;10.73;100.00;148822.28;5024249;28;20230;-53
2023/10/30 04:06:08;;;;;;;3.50;0.20;;;;;;;10.74;100.00;148824.78;5040134;28;20233;-51
2023/10/30 04:08:36;;;;;;;4.30;0.20;;;;;;;10.80;100.00;148838.44;5037309;28;20230;-51
2023/10/30 04:11:10;;;;;;;2.27;0.30;;;;;;;10.85;100.00;148850.91;5046983;28;20613;-53
2023/10/30 04:13:36;;;;;;;1.43;0.13;;;;;;;10.83;100.00;148845.94;5036451;28;20236;-51
2023/10/30 04:16:04;;;;;;;0.27;0.20;;;;;;;10.84;100.00;148848.41;5043358;28;20587;-51
2023/10/30 04:18:31;;;;;;;3.27;0.30;;;;;;;10.88;100.00;148858.38;5043489;28;20717;-51
2023/10/30 04:20:57;;;;;;;1.90;0.20;;;;;;;10.89;100.00;148862.16;5036127;28;20325;-52
2023/10/30 04:23:24;;;;;;;1.03;0.20;;;;;;;10.95;100.00;148875.81;5039556;28;20280;-51
2023/10/30 04:25:52;;;;;;;0.37;0.20;;;;;;;10.96;100.00;148877.09;5043215;28;20222;-51
2023/10/30 04:28:18;;;;;;;0.40;0.30;;;;;;;10.97;100.00;148880.81;5027437;28;20238;-51
2023/10/30 04:30:45;;;;;;;7.87;0.47;;;;;;;10.98;100.00;148883.31;5251974;22;20221;-52
2023/10/30 04:33:12;;;;;;;0.27;0.20;;;;;;;11.00;100.00;148888.28;5036866;28;20763;-53
2023/10/30 04:35:38;;;;;;;2.60;0.20;;;;;;;11.04;100.00;148898.25;5024014;28;20698;-52
2023/10/30 04:38:05;;;;;;;0.40;0.10;;;;;;;11.06;100.00;148903.22;5029483;28;20229;-51
2023/10/30 04:40:31;;;;;;;2.83;0.20;;;;;;;11.07;100.00;148904.50;5031975;28;20240;-52
2023/10/30 04:42:59;;;;;;;3.70;0.50;;;;;;;11.06;100.00;148902.00;5033817;28;20707;-52
2023/10/30 04:45:26;;;;;;;1.67;0.20;;;;;;;11.07;100.00;148904.50;5040034;28;20226;-50
2023/10/30 04:47:52;;;;;;;1.53;0.27;;;;;;;11.08;100.00;148908.22;5032977;28;20268;-52
2023/10/30 04:50:19;;;;;;;1.60;0.30;;;;;;;11.14;100.00;148921.91;5031261;28;20234;-50
2023/10/30 04:52:51;;;;;;;4.00;0.30;;;;;;;11.14;100.00;148920.69;5035115;28;20226;-52
2023/10/30 04:55:17;;;;;;;2.87;0.33;;;;;;;11.18;100.00;148930.66;5039924;28;20276;-51
2023/10/30 04:57:44;;;;;;;0.37;0.30;;;;;;;11.17;100.00;148928.16;5034891;28;20227;-50
2023/10/30 05:00:13;;;;;;;0.83;0.20;;;;;;;11.13;100.00;148918.19;5038700;28;20291;-51
2023/10/30 05:02:39;;;;;;;1.90;0.30;;;;;;;11.15;100.00;148924.41;5031470;28;20238;-51
2023/10/30 05:05:07;;;;;;;3.73;0.50;;;;;;;11.12;100.00;148916.97;5036755;28;20244;-51
2023/10/30 05:07:34;;;;;;;3.40;0.40;;;;;;;11.06;100.00;148903.22;5039475;28;20708;-50
2023/10/30 05:10:00;;;;;;;1.43;0.30;;;;;;;11.06;100.00;148902.00;5035072;28;20578;-50
2023/10/30 05:12:27;;;;;;;1.13;0.40;;;;;;;11.06;100.00;148902.00;5035061;28;20223;-51
2023/10/30 05:14:53;;;;;;;1.50;0.50;;;;;;;11.05;100.00;148900.75;5033671;28;20229;-51
2023/10/30 05:17:21;;;;;;;2.30;0.30;;;;;;;11.08;100.00;148907.00;5036541;28;20231;-50
2023/10/30 05:19:48;;;;;;;0.70;0.30;;;;;;;11.05;100.00;148900.75;5033263;28;20774;-51
2023/10/30 05:22:15;;;;;;;1.63;0.40;;;;;;;11.05;100.00;148899.53;5036456;28;20225;-50
2023/10/30 05:24:41;;;;;;;0.30;0.30;;;;;;;11.02;100.00;148892.03;5032362;28;20738;-50
2023/10/30 05:27:08;;;;;;;5.73;0.47;;;;;;;11.02;100.00;148892.03;5039549;28;20234;-51
2023/10/30 05:29:34;;;;;;;1.77;0.50;;;;;;;11.03;100.00;148894.53;5035436;28;20234;-51
2023/10/30 05:32:06;;;;;;;1.40;0.60;;;;;;;11.02;100.00;148893.28;5037115;28;20253;-52
2023/10/30 05:34:34;;;;;;;3.67;1.60;;;;;;;11.01;100.00;148890.78;5038251;28;20248;-50
2023/10/30 05:37:01;;;;;;;3.30;0.80;;;;;;;11.05;100.00;148899.53;5034778;28;20314;-52
2023/10/30 05:39:28;;;;;;;2.30;0.67;;;;;;;11.06;100.00;148902.00;5033204;28;20234;-50
2023/10/30 05:41:54;;;;;;;1.50;0.60;;;;;;;11.07;100.00;148905.72;5032609;28;20638;-51
2023/10/30 05:44:21;;;;;;;2.13;0.50;;;;;;;11.05;100.00;148900.75;5030920;28;20230;-50
2023/10/30 05:46:48;;;;;;;3.00;0.60;;;;;;;11.02;100.00;148893.28;5035014;28;20287;-51
2023/10/30 05:49:14;;;;;;;2.97;0.60;;;;;;;10.96;100.00;148878.31;5010424;28;20227;-51
2023/10/30 05:51:42;;;;;;;2.60;1.30;;;;;;;10.89;100.00;148860.88;5032569;28;20226;-51
2023/10/30 05:54:09;;;;;;;4.83;1.40;;;;;;;10.77;100.00;148833.47;5034355;28;20227;-52
2023/10/30 05:56:37;;;;;;;2.40;0.90;;;;;;;10.74;100.00;148824.78;5028598;28;20689;-51
2023/10/30 05:59:04;;;;;;;2.60;0.90;;;;;;;10.74;100.00;148826.00;5037421;28;20237;-51
2023/10/30 06:01:30;;;;;;;4.03;0.80;;;;;;;10.74;100.00;148826.00;5038403;28;20696;-51
2023/10/30 06:03:57;;;;;;;4.80;0.97;;;;;;;10.73;100.00;148822.28;5032940;28;20245;-53
2023/10/30 06:06:23;;;;;;;1.40;0.90;;;;;;;10.72;100.00;148819.78;5036843;28;20238;-51
2023/10/30 06:08:51;;;;;;;2.47;0.70;;;;;;;10.72;100.00;148821.00;5030751;28;20230;-50
2023/10/30 06:11:18;;;;;;;1.10;0.70;;;;;;;10.69;100.00;148812.31;5036259;28;20223;-53
2023/10/30 06:13:44;;;;;;;1.33;0.80;;;;;;;10.65;100.00;148802.34;5029986;28;20628;-53
2023/10/30 06:16:15;;;;;;;2.77;0.70;;;;;;;10.54;100.00;148777.44;5035824;28;20261;-50
2023/10/30 06:18:41;;;;;;;3.50;0.90;;;;;;;10.50;100.00;148766.25;5024716;28;20229;-51
2023/10/30 06:21:08;;;;;;;2.63;1.20;;;;;;;10.48;100.00;148763.75;5035229;28;20280;-50
2023/10/30 06:23:35;;;;;;;3.20;0.80;;;;;;;10.45;100.00;148756.28;5031889;28;20879;-52
2023/10/30 06:26:09;;;;;;;4.83;1.07;;;;;;;10.47;100.00;148760.00;5034394;28;20236;-50
2023/10/30 06:28:37;;;;;;;2.07;1.13;;;;;;;10.49;100.00;148764.97;5031697;28;20862;-51
2023/10/30 06:31:04;;;;;;;2.70;1.00;;;;;;;10.50;100.00;148766.25;5031084;28;20559;-52
2023/10/30 06:33:32;;;;;;;4.30;1.20;;;;;;;10.51;100.00;148768.75;5032755;28;20281;-50
2023/10/30 06:36:00;;;;;;;5.67;1.57;;;;;;;10.47;100.00;148761.28;5014420;28;20701;-50
2023/10/30 06:38:27;;;;;;;2.93;1.60;;;;;;;10.48;100.00;148762.50;5034773;28;20280;-50
2023/10/30 06:40:54;;;;;;;6.33;1.47;;;;;;;10.51;100.00;148769.97;5031923;28;20288;-51
2023/10/30 06:43:22;;;;;;;5.87;1.33;;;;;;;10.53;100.00;148773.72;5033282;28;20294;-51
2023/10/30 06:45:49;;;;;;;2.63;1.50;;;;;;;10.53;100.00;148774.94;5022796;28;20234;-51
2023/10/30 06:48:15;;;;;;;5.23;1.40;;;;;;;10.53;100.00;148774.94;5028292;28;20292;-50
2023/10/30 06:50:42;;;;;;;2.70;1.60;;;;;;;10.59;100.00;148788.69;5031609;28;20237;-53
2023/10/30 06:53:08;;;;;;;1.47;1.00;;;;;;;10.62;100.00;148796.09;5033741;28;20317;-53
2023/10/30 06:55:38;;;;;;;2.77;1.50;;;;;;;10.70;100.00;148816.03;5031480;28;20283;-53
2023/10/30 06:58:05;;;;;;;1.93;1.10;;;;;;;10.78;100.00;148834.75;5035393;28;20311;-51
2023/10/30 07:00:33;;;;;;;4.87;1.43;;;;;;;10.90;100.00;148864.63;5036482;28;20292;-51
2023/10/30 07:03:00;;;;;;;2.43;1.37;;;;;;;11.06;100.00;148902.00;5029097;28;20234;-51
2023/10/30 07:05:26;;;;;;;1.90;1.50;;;;;;;11.21;100.00;148939.34;5033406;28;20237;-52
2023/10/30 07:07:53;;;;;;;5.90;1.70;;;;;;;11.33;100.00;148968.03;5013988;28;20220;-50
2023/10/30 07:10:19;;;;;;;5.13;2.10;;;;;;;11.50;100.00;149007.91;5033844;28;20219;-50
2023/10/30 07:12:51;;;;;;;4.13;1.83;;;;;;;11.76;100.00;149071.47;5032388;28;20226;-53
2023/10/30 07:15:18;;;;;;;2.27;1.87;;;;;;;11.93;100.00;149111.34;5033720;28;20231;-50
2023/10/30 07:17:46;;;;;;;3.13;1.67;;;;;;;12.01;100.00;149131.34;5024175;28;20230;-52
2023/10/30 07:20:12;;;;;;;2.93;1.67;;;;;;;12.03;100.00;149135.06;5033570;28;20234;-50
2023/10/30 07:22:39;;;;;;;3.73;1.60;;;;;;;11.91;100.00;149107.59;5030566;28;20288;-51
2023/10/30 07:25:07;;;;;;;2.13;1.37;;;;;;;11.78;100.00;149076.44;5027326;28;20230;-50
2023/10/30 07:27:34;;;;;;;7.33;3.30;;;;;;;11.74;100.00;149066.47;5026834;28;20653;-53
2023/10/30 07:30:02;;;;;;;3.67;1.30;;;;;;;11.74;100.00;149065.19;5031461;28;20256;-54
2023/10/30 07:32:28;;;;;;;2.10;1.90;;;;;;;11.82;100.00;149085.16;5032741;28;20225;-54
2023/10/30 07:34:56;;;;;;;8.87;5.73;;;;;;;11.92;100.00;149110.09;5022995;28;20305;-50
2023/10/30 07:37:23;;;;;;;9.47;6.00;;;;;;;12.03;100.00;149135.06;5036925;28;20231;-51
2023/10/30 07:39:49;;;;;;;5.17;2.80;;;;;;;12.18;100.00;149172.47;5030447;28;20280;-51
2023/10/30 07:42:16;;;;;;;3.57;1.73;;;;;;;12.33;100.00;149207.38;5033931;28;20229;-51
2023/10/30 07:44:43;;;;;;;4.57;2.40;;;;;;;12.49;100.00;149246.00;5013247;28;20632;-51
2023/10/30 07:47:09;;;;;;;4.67;2.30;;;;;;;12.40;100.00;149224.84;5034808;28;20288;-51
2023/10/30 07:49:36;;;;;;;3.87;2.63;;;;;;;12.51;100.00;149251.00;5030660;28;20249;-53
2023/10/30 07:52:04;;;;;;;11.20;9.03;;;;;;;12.61;100.00;149275.94;5031904;28;20230;-54
2023/10/30 07:54:31;;;;;;;5.10;3.03;;;;;;;12.65;100.00;149285.91;5031786;28;20268;-51
2023/10/30 07:56:57;;;;;;;3.60;3.00;;;;;;;12.77;100.00;149314.59;5029096;28;20686;-53
2023/10/30 07:59:24;;;;;;;2.90;2.00;;;;;;;12.79;100.00;149319.56;5034038;28;20595;-50
2023/10/30 08:01:51;;;;;;;3.03;1.83;;;;;;;12.76;100.00;149312.09;5033611;28;20226;-51
2023/10/30 08:04:17;;;;;;;6.53;2.80;;;;;;;12.68;100.00;149292.19;5034731;28;20235;-52
2023/10/30 08:06:44;;;;;;;5.43;2.43;;;;;;;12.57;100.00;149265.97;5033044;28;20243;-52
2023/10/30 08:09:12;;;;;;;3.97;1.80;;;;;;;12.37;100.00;149217.34;5034619;28;20301;-53
2023/10/30 08:11:39;;;;;;;3.90;1.67;;;;;;;12.27;100.00;149193.63;5029127;28;20263;-50
2023/10/30 08:14:05;;;;;;;2.47;1.70;;;;;;;12.30;100.00;149201.13;5034038;28;20259;-50
2023/10/30 08:16:34;;;;;;;4.67;1.60;;;;;;;12.34;100.00;149211.09;5035705;28;20237;-51
2023/10/30 08:19:01;;;;;;;3.53;1.80;;;;;;;12.38;100.00;149219.84;5030714;28;20230;-52
2023/10/30 08:21:28;;;;;;;4.63;1.50;;;;;;;12.38;100.00;149219.84;5015416;28;20276;-53
2023/10/30 08:23:54;;;;;;;1.90;1.47;;;;;;;12.47;100.00;149242.28;5031832;28;20253;-53
2023/10/30 08:26:22;;;;;;;3.80;1.57;;;;;;;12.51;100.00;149252.28;5033339;28;20235;-53
2023/10/30 08:28:49;;;;;;;4.53;1.50;;;;;;;12.65;100.00;149284.69;5022539;28;20772;-53
2023/10/30 08:31:16;;;;;;;3.37;1.57;;;;;;;12.75;100.00;149309.59;5032068;28;20238;-50
2023/10/30 08:33:43;;;;;;;7.00;1.70;;;;;;;12.81;100.00;149323.34;5023562;28;20762;-51
2023/10/30 08:36:09;;;;;;;6.97;1.80;;;;;;;12.79;100.00;149318.34;5029342;28;20226;-52
2023/10/30 08:38:38;;;;;;;5.33;1.60;;;;;;;12.76;100.00;149310.88;5034731;28;20692;-53
2023/10/30 08:41:05;;;;;;;2.83;1.50;;;;;;;12.78;100.00;149315.84;5038672;28;20240;-50
2023/10/30 08:43:33;;;;;;;2.53;1.57;;;;;;;12.78;100.00;149317.09;5035977;28;20231;-50
2023/10/30 08:45:59;;;;;;;5.13;1.90;;;;;;;12.80;100.00;149322.06;5034329;28;20228;-52
2023/10/30 08:48:26;;;;;;;4.17;1.90;;;;;;;12.87;100.00;149337.03;5030422;28;20228;-50
2023/10/30 08:50:53;;;;;;;4.40;1.60;;;;;;;12.84;100.00;149330.81;5025326;28;20290;-50
2023/10/30 08:53:19;;;;;;;5.33;1.53;;;;;;;12.66;100.00;149288.41;5037724;28;20223;-50
2023/10/30 08:55:46;;;;;;;2.60;1.80;;;;;;;12.71;100.00;149299.66;5037728;28;20269;-50
2023/10/30 08:58:12;;;;;;;8.60;2.13;;;;;;;12.85;100.00;149334.53;5038838;28;20245;-50
2023/10/30 09:00:42;;;;;;;5.10;1.90;;;;;;;12.84;100.00;149330.81;5034465;28;20235;-50
2023/10/30 09:03:09;;;;;;;3.40;2.07;;;;;;;12.92;100.00;149349.50;5034645;28;20728;-51
2023/10/30 09:05:35;;;;;;;4.57;1.93;;;;;;;13.03;100.00;149376.97;5032253;28;20280;-51
2023/10/30 09:08:02;;;;;;;3.23;1.60;;;;;;;13.10;100.00;149393.19;5027767;28;20761;-50
2023/10/30 09:10:32;;;;;;;3.43;1.67;;;;;;;13.19;100.00;149414.38;5036284;28;20233;-53
2023/10/30 09:12:59;;;;;;;2.77;1.77;;;;;;;13.24;100.00;149426.88;5033034;28;20231;-50
2023/10/30 09:15:25;;;;;;;4.87;1.80;;;;;;;13.28;100.00;149438.06;5036858;28;20235;-50
2023/10/30 09:17:53;;;;;;;3.07;1.80;;;;;;;13.29;100.00;149439.34;5031447;28;20354;-50
2023/10/30 09:20:20;;;;;;;4.20;2.10;;;;;;;13.38;100.00;149460.53;5040517;28;20227;-50
2023/10/30 09:22:50;;;;;;;3.40;1.60;;;;;;;13.45;100.00;149478.03;5037140;28;20561;-52
2023/10/30 09:25:17;;;;;;;4.20;1.60;;;;;;;13.45;100.00;149476.81;5036667;28;20232;-50
2023/10/30 09:27:44;;;;;;;2.83;1.80;;;;;;;13.62;100.00;149519.25;5032731;28;20228;-51
2023/10/30 09:30:11;;;;;;;2.87;1.70;;;;;;;13.69;100.00;149536.72;5034566;28;20235;-50
2023/10/30 09:32:38;;;;;;;2.80;1.47;;;;;;;13.72;100.00;149544.22;5033482;28;20235;-51
2023/10/30 09:35:07;;;;;;;4.37;1.30;;;;;;;13.85;100.00;149575.41;5033982;28;20231;-52
2023/10/30 09:37:34;;;;;;;3.47;1.90;;;;;;;14.06;100.00;149624.06;5018592;28;20245;-52
2023/10/30 09:40:02;;;;;;;3.37;2.23;;;;;;;14.23;100.00;149666.50;5029315;28;20232;-53
2023/10/30 09:42:29;;;;;;;4.37;1.80;;;;;;;14.45;100.00;149718.94;5035727;28;20255;-50
2023/10/30 09:44:56;;;;;;;4.70;1.90;;;;;;;14.61;100.00;149758.91;5033403;28;20224;-51
2023/10/30 09:47:25;;;;;;;2.00;1.60;;;;;;;14.97;100.00;149845.09;5037846;28;20293;-50
2023/10/30 09:49:55;;;;;;;2.90;2.17;;;;;;;15.31;100.00;149927.53;5029655;28;20221;-51
2023/10/30 09:52:24;;;;;;;4.80;1.63;;;;;;;15.56;100.00;149986.25;5026207;28;20315;-52
2023/10/30 09:54:51;;;;;;;3.53;1.80;;;;;;;15.92;100.00;150073.72;5028252;28;20237;-51
2023/10/30 09:57:18;;;;;;;3.37;1.97;;;;;;;16.19;100.00;150138.72;5034678;28;20240;-52
2023/10/30 09:59:45;;;;;;;2.53;1.37;;;;;;;16.06;100.00;150108.72;5032066;28;20637;-51
2023/10/30 10:02:12;;;;;;;3.33;1.40;;;;;;;16.22;100.00;150147.50;5026596;28;21075;-51
2023/10/30 10:04:40;;;;;;;2.40;1.70;;;;;;;16.17;99.87;150135.00;5034083;28;20283;-51
2023/10/30 10:07:07;;;;;;;4.10;1.63;;;;;;;16.13;98.89;150125.00;5034909;28;20309;-51
2023/10/30 10:09:35;;;;;;;5.33;2.00;;;;;;;15.76;100.00;150034.97;5037639;28;20234;-51
2023/10/30 10:12:02;;;;;;;4.10;1.70;;;;;;;15.59;100.00;149993.75;5031144;28;20223;-51
2023/10/30 10:14:31;;;;;;;3.63;1.60;;;;;;;15.62;100.00;150001.25;5037559;28;20252;-51
2023/10/30 10:16:59;;;;;;;3.27;1.50;;;;;;;15.71;100.00;150023.72;5034300;28;20261;-51
2023/10/30 10:19:26;;;;;;;5.43;1.70;;;;;;;15.99;100.00;150091.22;5024648;28;20228;-53
2023/10/30 10:21:52;;;;;;;2.17;1.40;;;;;;;16.16;100.00;150132.50;5031406;28;20253;-51
2023/10/30 10:24:29;;;;;;;7.13;1.60;;;;;;;16.33;100.00;150173.72;5033896;28;20238;-52
2023/10/30 10:27:02;;;;;;;1.40;1.30;;;;;;;16.42;100.00;150195.00;5033340;28;20323;-51
2023/10/30 10:29:28;;;;;;;2.47;1.00;;;;;;;16.52;100.00;150218.72;5037527;28;20239;-51
2023/10/30 10:31:57;;;;;;;1.60;1.30;;;;;;;16.49;100.00;150212.44;5031462;28;20280;-50
2023/10/30 10:34:23;;;;;;;3.07;1.70;;;;;;;16.33;100.00;150172.50;5035037;28;20229;-51
2023/10/30 10:36:51;;;;;;;4.93;2.27;;;;;;;16.41;100.00;150192.50;5033746;28;20231;-54
2023/10/30 10:39:18;;;;;;;2.17;1.43;;;;;;;16.49;100.00;150211.22;5033948;28;20284;-51
2023/10/30 10:41:45;;;;;;;2.80;1.50;;;;;;;16.51;100.00;150216.22;5023689;28;20238;-52
2023/10/30 10:44:23;;;;;;;3.07;1.90;;;;;;;16.26;100.00;150155.00;5002631;28;20222;-51
2023/10/30 10:46:52;;;;;;;3.40;1.60;;;;;;;16.10;100.00;150117.50;5027675;28;20230;-51
2023/10/30 10:49:18;;;;;;;3.17;1.60;;;;;;;15.84;100.00;150053.72;5036886;28;20224;-51
2023/10/30 10:51:47;;;;;;;4.93;1.70;;;;;;;15.87;100.00;150061.28;5026352;28;20300;-53
2023/10/30 10:54:21;;;;;;;3.60;1.60;;;;;;;16.07;100.00;150111.22;5032407;28;20247;-52
2023/10/30 10:56:53;;;;;;;6.17;1.50;;;;;;;15.93;100.00;150076.22;5030307;28;20233;-51
2023/10/30 10:59:26;;;;;;;2.30;1.57;;;;;;;15.86;100.00;150059.94;5034399;28;20714;-51
2023/10/30 11:01:56;;;;;;;2.97;1.60;;;;;;;15.81;100.00;150046.22;5031988;28;20232;-51
2023/10/30 11:04:24;;;;;;;3.30;1.60;;;;;;;15.78;100.00;150041.22;5033808;28;20277;-51
2023/10/30 11:06:56;;;;;;;5.77;1.77;;;;;;;15.69;100.00;150018.75;5029876;28;20262;-52
2023/10/30 11:09:27;;;;;;;2.27;1.30;;;;;;;15.75;100.00;150033.72;5033994;28;20240;-52
2023/10/30 11:12:05;;;;;;;3.57;1.40;;;;;;;15.62;100.00;150001.25;5022396;28;20578;-50
2023/10/30 11:14:39;;;;;;;4.17;1.40;;;;;;;15.61;100.00;149998.75;5034204;28;20236;-52
2023/10/30 11:17:06;;;;;;;2.03;1.40;;;;;;;15.55;100.00;149984.97;5031815;28;20827;-51